Bei Facebook empfehlenBei Twitter postenGoogle plusPinterest

Das Wetter im Erzgebirge am 28.03.2017

Wetter und Klima am 28.03.2017 Holzhau im Erzgebirge (630m ü.NN)
Letzte gemessene Temperatur und Uhrzeit der Messung23:45:00 Uhr2.40 °C
Temperatur (Maximum / Höchstwert) und Uhrzeit der Messung15:45:00 Uhr21.00 °C
Temperatur (Minimum / Tiefstwert) und Uhrzeit der Messung05:15:00-0.40 °C
Errechneter Absolutwert der Temperaturschwankungen zwischen Tmin und Tmax des Tages21.40 K
Errechnete Tagesmitteltemperatur8.73646 °C
Gesamt - Niederschlag des Tages (in flüssiger Form)0.00 Liter / m²
Luftdruck (Maximum / Höchstwert) und Zeitpunkt der Messung00:15:00 Uhr1020.50 hPa
Luftdruck (Minimum / Tiefstwert) und Zeitpunkt der Messung18:45:00 Uhr1017.60 hPa
Errechneter Absolutwert der Luftdruckschwankungen des Tages2.90 hPa
Höchste gemessene Windgeschwindigkeit und Uhrzeit der Messung12:30:00 Uhr12.60 km/h
Errechnete Windhäufigkeit in Relation zu den Messwerten des Tages42.70833 %
Niedrigste Windkühle (Windchill) und Zeitpunkt der Messung06:45:00 Uhr-2.20 °C
Taupunkt (Maximum / Höchstwert) und Uhrzeit der Messung10:00:00 Uhr5.90 °C
Taupunkt (Minimum / Tiefstwert) und Uhrzeit der Messung05:15:00-3.60 °C
Anzahl der automatisch eingelesenen Messwerte 96

Detaillierte Wetter- und Klima- Messwerte für den 28.03.2017 in Holzhau im Erzgebirge (630m ü.NN)
ZeitTemperaturLuftdruckRel. LuftfeuchteWindWindrichtungWindchillTaupunktNiederschlag l/m²
23:45:002.40 °C1018.50 hPa82.00 %-0.40 °C 
23:30:002.40 °C1018.40 hPa81.00 %-0.50 °C 
23:15:002.90 °C1018.40 hPa80.00 %-0.20 °C 
23:00:003.20 °C1018.40 hPa79.00 %-0.10 °C 
22:45:003.60 °C1018.20 hPa78.00 %3.24 km/hOSO3.60 °C0.10 °C 
22:30:003.90 °C1018.30 hPa78.00 %0.40 °C 
22:15:004.10 °C1018.40 hPa77.00 %3.60 km/hOSO4.10 °C0.40 °C 
22:00:004.50 °C1018.10 hPa76.00 %0.36 km/hSO4.50 °C0.60 °C 
21:45:005.10 °C1018.30 hPa75.00 %1.00 °C 
21:30:005.60 °C1018.30 hPa75.00 %1.50 °C 
21:15:005.80 °C1018.20 hPa74.00 %3.60 km/hOSO5.80 °C1.50 °C 
21:00:006.40 °C1018.30 hPa72.00 %1.70 °C 
20:45:006.90 °C1018.00 hPa71.00 %2.00 °C 
20:30:007.30 °C1018.10 hPa69.00 %2.00 °C 
20:15:007.80 °C1018.00 hPa65.00 %1.60 °C 
20:00:008.60 °C1017.80 hPa64.00 %2.20 °C 
19:45:009.60 °C1017.70 hPa60.00 %2.20 °C 
19:30:0011.10 °C1017.70 hPa55.00 %2.40 °C 
19:15:0012.70 °C1017.70 hPa51.00 %2.80 °C 
19:00:0014.20 °C1017.70 hPa46.00 %2.80 °C 
18:45:0015.80 °C1017.60 hPa42.00 %2.90 °C 
18:30:0017.30 °C1017.60 hPa40.00 %3.60 °C 
18:15:0018.10 °C1017.70 hPa38.00 %3.60 °C 
18:00:0018.80 °C1017.70 hPa36.00 %3.40 °C 
17:45:0019.10 °C1017.70 hPa35.00 %3.30 °C 
17:30:0019.10 °C1017.60 hPa35.00 %6.84 km/hWNW19.80 °C3.30 °C 
17:15:0019.50 °C1017.80 hPa35.00 %3.60 °C 
17:00:0019.80 °C1017.80 hPa34.00 %1.08 km/hNNW19.80 °C3.50 °C 
16:45:0020.10 °C1017.90 hPa35.00 %1.08 km/hWNW20.10 °C4.20 °C 
16:30:0020.60 °C1017.90 hPa34.00 %4.20 °C 
16:15:0020.90 °C1017.80 hPa34.00 %4.50 °C 
16:00:0020.80 °C1018.00 hPa33.00 %4.00 °C 
15:45:0021.00 °C1017.80 hPa34.00 %4.60 °C 
15:30:0020.60 °C1018.10 hPa34.00 %4.20 °C 
15:15:0020.40 °C1017.90 hPa34.00 %8.28 km/hSW21.20 °C4.00 °C 
15:00:0020.30 °C1018.10 hPa35.00 %2.16 km/hSW20.30 °C4.40 °C 
14:45:0019.80 °C1018.30 hPa35.00 %9.36 km/hSW20.40 °C3.90 °C 
14:30:0019.80 °C1018.20 hPa34.00 %3.96 km/hW19.80 °C3.50 °C 
14:15:0019.60 °C1018.40 hPa35.00 %3.24 km/hS19.60 °C3.70 °C 
14:00:0019.40 °C1018.60 hPa35.00 %3.60 °C 
13:45:0019.30 °C1018.70 hPa35.00 %8.28 km/hWNW19.90 °C3.50 °C 
13:30:0018.90 °C1018.70 hPa35.00 %0.36 km/hSSW18.90 °C3.10 °C 
13:15:0018.70 °C1018.90 hPa35.00 %7.56 km/hWNW19.30 °C2.90 °C 
13:00:0018.90 °C1019.00 hPa35.00 %4.32 km/hWNW18.90 °C3.10 °C 
12:45:0018.90 °C1019.20 hPa34.00 %2.70 °C 
12:30:0018.90 °C1019.20 hPa36.00 %12.60 km/hWNW19.10 °C3.50 °C 
12:15:0018.40 °C1019.30 hPa37.00 %3.50 °C 
12:00:0018.40 °C1019.50 hPa36.00 %5.76 km/hWNW19.20 °C3.10 °C 
11:45:0018.00 °C1019.40 hPa37.00 %1.44 km/hNNW18.00 °C3.10 °C 
11:30:0017.60 °C1019.50 hPa38.00 %3.10 °C 
11:15:0017.20 °C1019.50 hPa40.00 %7.92 km/hW17.50 °C3.50 °C 
11:00:0016.80 °C1019.60 hPa40.00 %3.24 km/hWNW16.80 °C3.10 °C 
10:45:0016.20 °C1019.60 hPa42.00 %0.72 km/hW16.20 °C3.30 °C 
10:30:0015.50 °C1019.60 hPa43.00 %3.00 °C 
10:15:0014.20 °C1019.40 hPa50.00 %6.84 km/hWSW14.10 °C3.90 °C 
10:00:0011.80 °C1019.40 hPa67.00 %5.90 °C 
09:45:009.60 °C1019.20 hPa72.00 %4.80 °C 
09:30:008.10 °C1019.00 hPa75.00 %3.90 °C 
09:15:006.40 °C1018.80 hPa77.00 %2.70 °C 
09:00:004.70 °C1018.80 hPa79.00 %1.08 km/hOSO4.70 °C1.40 °C 
08:45:003.30 °C1018.80 hPa80.00 %0.20 °C 
08:30:002.20 °C1018.80 hPa81.00 %-0.70 °C 
08:15:001.30 °C1018.90 hPa82.00 %5.04 km/hOSO-0.10 °C-1.40 °C 
08:00:000.40 °C1018.90 hPa82.00 %2.16 km/hOSO0.40 °C-2.30 °C 
07:45:000.40 °C1018.80 hPa82.00 %-2.30 °C 
07:30:000.30 °C1018.90 hPa81.00 %1.80 km/hSO0.30 °C-2.60 °C 
07:15:000.30 °C1018.80 hPa81.00 %2.16 km/hOSO0.30 °C-2.60 °C 
07:00:000.30 °C1018.70 hPa80.00 %4.68 km/hOSO0.30 °C-2.70 °C 
06:45:000.40 °C1018.70 hPa80.00 %7.92 km/hSO-2.20 °C-2.60 °C 
06:30:000.50 °C1018.60 hPa80.00 %-2.50 °C 
06:15:000.50 °C1018.50 hPa80.00 %4.32 km/hSO0.50 °C-2.50 °C 
06:00:000.70 °C1018.50 hPa80.00 %1.44 km/hOSO0.70 °C-2.30 °C 
05:45:000.40 °C1018.70 hPa82.00 %-2.30 °C 
05:30:00-0.10 °C1018.80 hPa81.00 %4.32 km/hSO-0.10 °C-3.30 °C 
05:15:00-0.40 °C1018.70 hPa81.00 %1.08 km/hOSO-0.40 °C-3.60 °C 
05:00:00-0.20 °C1018.60 hPa81.00 %1.08 km/hOSO-0.20 °C-3.40 °C 
04:45:00-0.20 °C1018.70 hPa81.00 %-3.40 °C 
04:30:00-0.10 °C1018.80 hPa81.00 %-3.30 °C 
04:15:00-0.10 °C1018.80 hPa81.00 %0.72 km/hOSO-0.10 °C-3.30 °C 
04:00:00-0.10 °C1018.90 hPa81.00 %-3.30 °C 
03:45:00-0.10 °C1018.90 hPa81.00 %3.24 km/hSO-0.10 °C-3.30 °C 
03:30:000.10 °C1019.20 hPa80.00 %1.80 km/hOSO0.10 °C-2.90 °C 
03:15:000.20 °C1019.50 hPa80.00 %-2.80 °C 
03:00:000.40 °C1019.50 hPa80.00 %3.60 km/hO0.40 °C-2.60 °C 
02:45:000.30 °C1019.50 hPa80.00 %-2.70 °C 
02:30:000.10 °C1019.60 hPa81.00 %-2.80 °C 
02:15:00-0.10 °C1019.80 hPa80.00 %-3.50 °C 
02:00:000.10 °C1019.80 hPa80.00 %1.08 km/hO0.10 °C-2.90 °C 
01:45:000.20 °C1019.70 hPa80.00 %-2.80 °C 
01:30:000.20 °C1020.10 hPa80.00 %-2.80 °C 
01:15:000.10 °C1020.00 hPa79.00 %-3.10 °C 
01:00:000.10 °C1020.10 hPa79.00 %-3.10 °C 
00:45:000.30 °C1020.10 hPa78.00 %-3.10 °C 
00:30:000.40 °C1020.30 hPa78.00 %-3.00 °C 
00:15:000.50 °C1020.50 hPa78.00 %0.72 km/hSO0.50 °C-2.90 °C 
00:00:000.70 °C1020.40 hPa77.00 %-2.90 °C 

Permanenter Link zu dieser Seite: Wetter im Erzgebirge am 28.03.2017
Performance-Info: Die Erstellung der Seite / Statistik(en) / Tabelle(n) erforderte 5 Datenbankserver-Abfrage(n) und dauerte 124 Millisekunden. (Dieser Messwert ist von der Gesamt-Auslastung des Servers abhängig.)
Erzgebirge - Wetter | Erzgebirge - Wetter (Mobilgeräte) | Komplette Klimadatenbank